createdAt,value
2023-12-11T00:01:54.329Z,4.89
2023-12-11T00:04:21.542Z,4.59
2023-12-11T00:06:48.832Z,4.68
2023-12-11T00:09:16.129Z,4.68
2023-12-11T00:11:43.263Z,4.72
2023-12-11T00:14:10.612Z,4.72
2023-12-11T00:16:38.272Z,4.86
2023-12-11T00:19:05.570Z,4.83
2023-12-11T00:21:32.893Z,4.64
2023-12-11T00:24:00.007Z,5.00
2023-12-11T00:26:27.186Z,4.87
2023-12-11T00:28:54.240Z,4.92
2023-12-11T00:31:23.044Z,4.71
2023-12-11T00:33:50.456Z,4.79
2023-12-11T00:36:17.700Z,4.83
2023-12-11T00:38:44.838Z,4.87
2023-12-11T00:41:12.193Z,4.95
2023-12-11T00:43:45.188Z,4.86
2023-12-11T00:46:25.353Z,5.00
2023-12-11T00:48:52.880Z,4.88
2023-12-11T00:51:21.715Z,4.94
2023-12-11T00:53:49.419Z,4.84
2023-12-11T00:56:17.130Z,4.70
2023-12-11T00:58:44.825Z,4.72
2023-12-11T01:01:12.172Z,4.65
2023-12-11T01:03:40.216Z,4.74
2023-12-11T01:06:08.503Z,4.77
2023-12-11T01:08:40.095Z,4.73
2023-12-11T01:11:08.014Z,4.62
2023-12-11T01:13:35.278Z,4.66
2023-12-11T01:16:02.474Z,4.83
2023-12-11T01:18:30.095Z,4.91
2023-12-11T01:20:57.325Z,4.97
2023-12-11T01:23:24.574Z,4.90
2023-12-11T01:25:51.714Z,5.10
2023-12-11T01:28:20.154Z,5.01
2023-12-11T01:30:47.489Z,4.78
2023-12-11T01:33:14.865Z,5.08
2023-12-11T01:35:42.263Z,5.03
2023-12-11T01:38:09.412Z,5.00
2023-12-11T01:40:36.617Z,5.06
2023-12-11T01:43:19.451Z,5.02
2023-12-11T01:45:51.902Z,4.96
2023-12-11T01:48:19.258Z,4.93
2023-12-11T01:50:46.714Z,4.84
2023-12-11T01:53:14.382Z,4.80
2023-12-11T01:55:42.157Z,4.80
2023-12-11T01:58:10.033Z,4.57
2023-12-11T02:00:37.283Z,4.51
2023-12-11T02:03:04.509Z,4.49
2023-12-11T02:05:31.704Z,4.46
2023-12-11T02:08:00.081Z,4.35
2023-12-11T02:10:27.206Z,4.24
2023-12-11T02:12:54.901Z,4.27
2023-12-11T02:15:58.075Z,4.26
2023-12-11T02:18:25.746Z,4.22
2023-12-11T02:20:52.936Z,4.31
2023-12-11T02:23:44.847Z,4.30
2023-12-11T02:26:12.784Z,4.30
2023-12-11T02:28:40.110Z,4.32
2023-12-11T02:31:07.381Z,4.25
2023-12-11T02:33:34.557Z,4.40
2023-12-11T02:36:02.301Z,4.41
2023-12-11T02:38:29.929Z,4.27
2023-12-11T02:40:57.349Z,4.47
2023-12-11T02:43:24.661Z,4.38
2023-12-11T02:45:51.952Z,4.56
2023-12-11T02:48:19.798Z,4.52
2023-12-11T02:50:47.161Z,4.36
2023-12-11T02:53:14.520Z,4.49
2023-12-11T02:55:41.764Z,4.47
2023-12-11T02:58:09.158Z,4.58
2023-12-11T03:00:37.489Z,4.61
2023-12-11T03:03:05.058Z,4.45
2023-12-11T03:05:32.656Z,4.64
2023-12-11T03:07:59.779Z,4.57
2023-12-11T03:10:26.847Z,4.64
2023-12-11T03:12:54.028Z,4.58
2023-12-11T03:15:21.269Z,4.55
2023-12-11T03:17:48.697Z,4.67
2023-12-11T03:20:15.948Z,4.48
2023-12-11T03:22:43.385Z,4.73
2023-12-11T03:25:10.839Z,4.85
2023-12-11T03:27:38.129Z,4.86
2023-12-11T03:30:06.021Z,4.83
2023-12-11T03:32:33.734Z,4.95
2023-12-11T03:35:00.899Z,4.98
2023-12-11T03:37:28.456Z,4.98
2023-12-11T03:39:55.814Z,4.98
2023-12-11T03:42:22.999Z,4.99
2023-12-11T03:44:50.766Z,4.98
2023-12-11T03:47:18.740Z,5.02
2023-12-11T03:49:46.040Z,5.03
2023-12-11T03:52:13.393Z,5.06
2023-12-11T03:54:40.576Z,4.97
2023-12-11T03:57:07.776Z,4.99
2023-12-11T03:59:35.590Z,4.95
2023-12-11T04:02:03.041Z,4.44
2023-12-11T04:04:31.526Z,4.87
2023-12-11T04:06:58.842Z,4.87
2023-12-11T04:09:26.063Z,4.76
2023-12-11T04:11:53.217Z,4.84
2023-12-11T04:14:20.556Z,4.79
2023-12-11T04:16:47.700Z,4.86
2023-12-11T04:19:14.946Z,4.88
2023-12-11T04:21:42.641Z,4.83
2023-12-11T04:24:12.628Z,4.82
2023-12-11T04:26:41.516Z,4.79
2023-12-11T04:29:08.636Z,4.74
2023-12-11T04:31:35.734Z,4.54
2023-12-11T04:34:03.441Z,4.67
2023-12-11T04:36:30.878Z,4.70
2023-12-11T04:38:58.030Z,4.60
2023-12-11T04:41:25.199Z,4.58
2023-12-11T04:43:52.409Z,4.51
2023-12-11T04:46:19.596Z,4.47
2023-12-11T04:48:46.832Z,4.50
2023-12-11T04:51:14.033Z,4.43
2023-12-11T04:53:41.133Z,4.38
2023-12-11T04:56:09.386Z,4.31
2023-12-11T04:58:36.524Z,4.28
2023-12-11T05:01:04.195Z,4.32
2023-12-11T05:03:31.605Z,4.30
2023-12-11T05:05:58.749Z,4.21
2023-12-11T05:08:28.025Z,4.17
2023-12-11T05:10:57.413Z,3.99
2023-12-11T05:13:24.992Z,3.98
2023-12-11T05:15:52.353Z,3.94
2023-12-11T05:18:19.704Z,3.86
2023-12-11T05:20:46.976Z,3.83
2023-12-11T05:23:14.165Z,3.74
2023-12-11T05:25:41.333Z,3.67
2023-12-11T05:28:08.523Z,3.63
2023-12-11T05:30:35.749Z,3.60
2023-12-11T05:33:03.191Z,3.61
2023-12-11T05:35:30.545Z,3.82
2023-12-11T05:37:59.839Z,3.97
2023-12-11T05:40:27.611Z,3.98
2023-12-11T05:42:55.032Z,3.91
2023-12-11T05:45:22.411Z,3.97
2023-12-11T05:47:49.642Z,4.00
2023-12-11T05:50:17.072Z,4.01
2023-12-11T05:52:45.473Z,3.93
2023-12-11T05:55:13.143Z,3.99
2023-12-11T05:57:40.613Z,3.95
2023-12-11T06:00:08.685Z,3.72
2023-12-11T06:02:35.936Z,3.75
2023-12-11T06:05:03.263Z,3.49
2023-12-11T06:07:30.676Z,3.45
2023-12-11T06:09:58.067Z,3.25
2023-12-11T06:12:25.275Z,3.18
2023-12-11T06:14:52.563Z,2.77
2023-12-11T06:17:20.837Z,2.86
2023-12-11T06:19:48.141Z,2.76
2023-12-11T06:22:15.527Z,2.83
2023-12-11T06:24:42.955Z,3.01
2023-12-11T06:27:10.453Z,2.90
2023-12-11T06:29:39.363Z,2.88
2023-12-11T06:32:07.000Z,2.87
2023-12-11T06:34:35.008Z,2.97
2023-12-11T06:37:02.430Z,3.05
2023-12-11T06:39:29.954Z,3.15
2023-12-11T06:41:58.799Z,3.24
2023-12-11T06:44:26.880Z,3.24
2023-12-11T06:46:54.596Z,3.22
2023-12-11T06:49:22.519Z,3.24
2023-12-11T06:51:50.834Z,3.36
2023-12-11T06:54:18.175Z,3.28
2023-12-11T06:56:45.376Z,3.30
2023-12-11T06:59:12.487Z,3.25
2023-12-11T07:01:40.015Z,3.21
2023-12-11T07:04:07.460Z,3.25
2023-12-11T07:06:34.916Z,3.42
2023-12-11T07:09:02.193Z,3.40
2023-12-11T07:11:29.430Z,3.34
2023-12-11T07:13:56.994Z,3.33
2023-12-11T07:16:25.201Z,3.40
2023-12-11T07:18:54.234Z,3.52
2023-12-11T07:21:21.642Z,3.55
2023-12-11T07:23:51.875Z,3.58
2023-12-11T07:26:19.199Z,3.54
2023-12-11T07:28:46.433Z,3.48
2023-12-11T07:31:13.771Z,3.46
2023-12-11T07:33:41.142Z,3.46
2023-12-11T07:36:08.729Z,3.47
2023-12-11T07:38:35.987Z,3.60
2023-12-11T07:41:06.206Z,3.53
2023-12-11T07:43:35.020Z,3.56
2023-12-11T07:46:03.443Z,3.66
2023-12-11T07:48:32.032Z,3.72
2023-12-11T07:50:59.501Z,3.90
2023-12-11T07:53:26.674Z,3.94
2023-12-11T07:55:53.770Z,3.91
2023-12-11T07:58:21.016Z,4.04
2023-12-11T08:00:48.501Z,4.22
2023-12-11T08:03:15.742Z,4.36
2023-12-11T08:05:42.910Z,4.48
2023-12-11T08:08:10.172Z,4.71
2023-12-11T08:10:37.363Z,4.75
2023-12-11T08:13:04.786Z,4.76
2023-12-11T08:15:31.916Z,4.73
2023-12-11T08:17:59.499Z,4.79
2023-12-11T08:20:26.791Z,4.85
2023-12-11T08:22:53.888Z,5.08
2023-12-11T08:25:21.045Z,5.22
2023-12-11T08:27:48.351Z,5.32
2023-12-11T08:30:15.485Z,5.40
2023-12-11T08:32:42.945Z,5.56
2023-12-11T08:35:10.434Z,5.59
2023-12-11T08:37:38.238Z,5.57
2023-12-11T08:40:07.224Z,5.51
2023-12-11T08:42:40.119Z,5.80
2023-12-11T08:45:09.546Z,5.79
2023-12-11T08:47:39.446Z,6.25
2023-12-11T08:50:09.249Z,6.42
2023-12-11T08:52:38.151Z,6.56
2023-12-11T08:55:06.775Z,6.79
2023-12-11T08:57:34.743Z,6.94
2023-12-11T09:00:02.365Z,7.07
2023-12-11T09:02:29.756Z,7.14
2023-12-11T09:04:57.008Z,7.31
2023-12-11T09:07:24.244Z,7.41
2023-12-11T09:09:51.531Z,7.59
2023-12-11T09:12:28.087Z,7.79
2023-12-11T09:15:01.515Z,7.91
2023-12-11T09:17:30.366Z,8.14
2023-12-11T09:19:58.321Z,8.25
2023-12-11T09:22:26.504Z,8.25
2023-12-11T09:24:53.801Z,8.22
2023-12-11T09:27:21.388Z,8.43
2023-12-11T09:29:50.548Z,8.42
2023-12-11T09:32:18.178Z,8.15
2023-12-11T09:34:45.909Z,8.28
2023-12-11T09:37:13.438Z,8.34
2023-12-11T09:39:41.010Z,8.46
2023-12-11T09:42:13.662Z,8.64
2023-12-11T09:44:46.977Z,8.76
2023-12-11T09:47:27.645Z,8.81
2023-12-11T09:49:55.439Z,8.94
2023-12-11T09:52:25.929Z,8.97
2023-12-11T09:54:53.127Z,9.16
2023-12-11T09:57:21.072Z,9.29
2023-12-11T09:59:51.844Z,9.23
2023-12-11T10:02:19.341Z,9.36
2023-12-11T10:05:26.142Z,9.50
2023-12-11T10:07:53.427Z,9.56
2023-12-11T10:10:23.203Z,9.71
2023-12-11T10:12:51.083Z,9.75
2023-12-11T10:15:26.815Z,9.74
2023-12-11T10:18:03.653Z,9.87
2023-12-11T10:20:32.111Z,10.06
2023-12-11T10:23:04.075Z,10.18
2023-12-11T10:25:32.682Z,10.40
2023-12-11T10:28:08.549Z,10.61
2023-12-11T10:30:54.445Z,10.80
2023-12-11T10:33:24.350Z,11.01
2023-12-11T10:35:52.340Z,11.11
2023-12-11T10:38:28.985Z,11.05
2023-12-11T10:40:57.721Z,10.92
2023-12-11T10:43:25.019Z,11.07
2023-12-11T10:45:52.947Z,11.13
2023-12-11T10:48:22.230Z,11.27
2023-12-11T10:50:50.178Z,11.25
2023-12-11T10:53:18.478Z,11.31
2023-12-11T10:55:48.088Z,11.34
2023-12-11T10:58:15.850Z,11.21
2023-12-11T11:00:45.969Z,11.19
2023-12-11T11:03:14.488Z,11.25
2023-12-11T11:05:42.669Z,11.48
2023-12-11T11:08:31.507Z,11.56
2023-12-11T11:11:02.705Z,11.59
2023-12-11T11:13:35.650Z,11.69
2023-12-11T11:16:04.187Z,11.78
2023-12-11T11:19:07.580Z,11.93
2023-12-11T11:21:34.814Z,12.02
2023-12-11T11:24:03.268Z,11.85
2023-12-11T11:26:36.204Z,12.11
2023-12-11T11:29:05.061Z,12.28
2023-12-11T11:31:52.162Z,12.30
2023-12-11T11:34:41.078Z,12.35
2023-12-11T11:37:09.503Z,12.42
2023-12-11T11:40:03.581Z,12.42
2023-12-11T11:42:33.522Z,12.35
2023-12-11T11:45:03.450Z,12.38
2023-12-11T11:47:33.144Z,12.53
2023-12-11T11:50:17.453Z,12.56
2023-12-11T11:52:52.184Z,12.57
2023-12-11T11:55:27.715Z,12.72
2023-12-11T11:57:55.687Z,12.71
2023-12-11T12:00:32.442Z,12.64
2023-12-11T12:03:02.138Z,12.64
2023-12-11T12:05:29.500Z,12.66
2023-12-11T12:07:57.341Z,12.61
2023-12-11T12:10:25.323Z,12.51
2023-12-11T12:13:02.397Z,12.44
2023-12-11T12:15:29.923Z,12.40
2023-12-11T12:18:10.165Z,12.29
2023-12-11T12:20:37.539Z,12.14
2023-12-11T12:23:07.969Z,12.22
2023-12-11T12:25:36.339Z,12.18
2023-12-11T12:28:15.121Z,12.15
2023-12-11T12:30:42.780Z,12.25
2023-12-11T12:33:12.490Z,12.33
2023-12-11T12:35:40.483Z,12.53
2023-12-11T12:38:08.823Z,12.63
2023-12-11T12:40:36.876Z,12.68
2023-12-11T12:43:11.867Z,12.86
2023-12-11T12:45:39.655Z,12.89
2023-12-11T12:48:09.648Z,12.79
2023-12-11T12:50:37.339Z,12.68
2023-12-11T12:53:13.243Z,12.55
2023-12-11T12:55:40.998Z,12.61
2023-12-11T12:58:09.657Z,12.51
2023-12-11T13:00:37.721Z,12.44
2023-12-11T13:03:08.945Z,12.46
2023-12-11T13:05:45.334Z,12.37
2023-12-11T13:08:15.926Z,12.38
2023-12-11T13:10:57.692Z,12.41
2023-12-11T13:13:28.083Z,12.71
2023-12-11T13:15:57.611Z,12.75
2023-12-11T13:18:26.527Z,12.92
2023-12-11T13:20:54.035Z,13.02
2023-12-11T13:23:21.283Z,13.08
2023-12-11T13:25:49.029Z,13.12
2023-12-11T13:28:16.237Z,13.06
2023-12-11T13:30:43.576Z,12.90
2023-12-11T13:33:11.283Z,12.61
2023-12-11T13:35:38.519Z,12.42
2023-12-11T13:38:05.758Z,12.28
2023-12-11T13:40:32.998Z,11.82
2023-12-11T13:43:00.296Z,11.69
2023-12-11T13:45:28.904Z,11.66
2023-12-11T13:47:56.242Z,11.57
2023-12-11T13:50:23.557Z,11.55
2023-12-11T13:52:51.247Z,11.56
2023-12-11T13:55:18.587Z,11.34
2023-12-11T13:57:45.876Z,11.19
2023-12-11T14:00:16.720Z,11.40
2023-12-11T14:03:00.713Z,11.33
2023-12-11T14:05:34.106Z,11.09
2023-12-11T14:08:03.842Z,10.85
2023-12-11T14:10:37.819Z,10.86
2023-12-11T14:13:05.220Z,10.81
2023-12-11T14:15:32.467Z,10.86
2023-12-11T14:17:59.886Z,10.42
2023-12-11T14:20:27.126Z,10.49
2023-12-11T14:22:54.198Z,10.37
2023-12-11T14:25:21.552Z,10.41
2023-12-11T14:27:48.874Z,10.12
2023-12-11T14:30:16.107Z,9.90
2023-12-11T14:32:43.406Z,9.86
2023-12-11T14:35:11.234Z,9.80
2023-12-11T14:37:41.809Z,9.65
2023-12-11T14:40:09.357Z,9.58
2023-12-11T14:42:36.532Z,9.48
2023-12-11T14:45:04.230Z,9.40
2023-12-11T14:47:31.735Z,9.49
2023-12-11T14:49:59.372Z,9.43
2023-12-11T14:52:27.593Z,9.31
2023-12-11T14:54:54.869Z,9.43
2023-12-11T14:57:22.095Z,9.48
2023-12-11T14:59:49.216Z,9.46
2023-12-11T15:02:17.374Z,9.48
2023-12-11T15:04:44.485Z,9.38
2023-12-11T15:07:12.614Z,9.33
2023-12-11T15:09:40.825Z,9.41
2023-12-11T15:12:08.868Z,9.31
2023-12-11T15:14:36.413Z,9.28
2023-12-11T15:17:03.851Z,9.16
2023-12-11T15:19:31.102Z,9.14
2023-12-11T15:21:58.273Z,9.10
2023-12-11T15:24:25.526Z,9.11
2023-12-11T15:26:55.619Z,8.95
2023-12-11T15:29:22.882Z,8.98
2023-12-11T15:31:50.230Z,8.79
2023-12-11T15:34:17.470Z,8.74
2023-12-11T15:36:44.695Z,8.69
2023-12-11T15:39:11.910Z,8.64
2023-12-11T15:41:39.128Z,8.64
2023-12-11T15:44:06.270Z,8.62
2023-12-11T15:46:33.522Z,8.56
2023-12-11T15:49:02.163Z,8.32
2023-12-11T15:51:30.477Z,8.37
2023-12-11T15:53:57.725Z,8.45
2023-12-11T15:56:24.946Z,8.42
2023-12-11T15:58:52.040Z,8.40
2023-12-11T16:01:19.357Z,8.31
2023-12-11T16:03:46.759Z,8.30
2023-12-11T16:06:14.097Z,8.14
2023-12-11T16:08:41.600Z,8.18
2023-12-11T16:11:08.853Z,8.18
2023-12-11T16:13:35.942Z,8.09
2023-12-11T16:16:03.848Z,8.13
2023-12-11T16:18:31.228Z,8.10
2023-12-11T16:20:59.200Z,7.97
2023-12-11T16:23:26.784Z,8.02
2023-12-11T16:26:00.245Z,7.97
2023-12-11T16:28:32.393Z,8.01
2023-12-11T16:30:59.746Z,7.51
2023-12-11T16:33:27.459Z,7.92
2023-12-11T16:35:54.712Z,7.86
2023-12-11T16:38:23.101Z,7.92
2023-12-11T16:40:50.344Z,8.01
2023-12-11T16:43:19.026Z,8.07
2023-12-11T16:45:46.841Z,8.17
2023-12-11T16:48:14.463Z,8.08
2023-12-11T16:50:44.399Z,7.69
2023-12-11T16:53:11.874Z,7.83
2023-12-11T16:55:39.729Z,7.84
2023-12-11T16:58:08.726Z,7.67
2023-12-11T17:00:35.989Z,7.73
2023-12-11T17:03:03.196Z,7.75
2023-12-11T17:05:30.580Z,7.76
2023-12-11T17:07:58.993Z,7.71
2023-12-11T17:10:26.377Z,7.59
2023-12-11T17:12:53.716Z,7.53
2023-12-11T17:15:21.040Z,7.43
2023-12-11T17:17:48.210Z,7.31
2023-12-11T17:20:15.626Z,7.49
2023-12-11T17:22:43.041Z,7.46
2023-12-11T17:25:10.388Z,7.41
2023-12-11T17:27:37.480Z,7.37
2023-12-11T17:30:05.232Z,7.42
2023-12-11T17:32:33.138Z,7.32
2023-12-11T17:35:02.948Z,7.36
2023-12-11T17:37:30.531Z,7.33
2023-12-11T17:39:57.741Z,7.34
2023-12-11T17:42:27.272Z,7.22
2023-12-11T17:44:54.553Z,7.20
2023-12-11T17:47:21.869Z,7.15
2023-12-11T17:49:49.277Z,7.14
2023-12-11T17:52:16.649Z,7.10
2023-12-11T17:54:44.029Z,7.10
2023-12-11T17:57:11.254Z,7.00
2023-12-11T17:59:38.430Z,7.05
2023-12-11T18:02:05.996Z,7.05
2023-12-11T18:04:33.426Z,7.06
2023-12-11T18:07:00.670Z,6.99
2023-12-11T18:09:27.904Z,6.97
2023-12-11T18:11:55.092Z,6.99
2023-12-11T18:14:24.175Z,7.00
2023-12-11T18:16:51.331Z,6.97
2023-12-11T18:19:18.646Z,6.99
2023-12-11T18:21:46.400Z,6.97
2023-12-11T18:24:13.737Z,6.72
2023-12-11T18:26:40.969Z,6.87
2023-12-11T18:29:08.254Z,6.82
2023-12-11T18:31:35.679Z,6.81
2023-12-11T18:34:03.137Z,6.76
2023-12-11T18:36:30.547Z,6.76
2023-12-11T18:38:57.748Z,6.69
2023-12-11T18:41:25.026Z,6.49
2023-12-11T18:43:52.303Z,6.68
2023-12-11T18:46:22.332Z,6.62
2023-12-11T18:48:49.826Z,6.46
2023-12-11T18:51:31.416Z,6.58
2023-12-11T18:53:59.118Z,6.50
2023-12-11T18:56:26.658Z,6.46
2023-12-11T18:58:54.396Z,6.41
2023-12-11T19:01:22.583Z,6.32
2023-12-11T19:03:50.122Z,6.34
2023-12-11T19:06:17.956Z,6.31
2023-12-11T19:08:45.873Z,6.20
2023-12-11T19:11:17.306Z,6.25
2023-12-11T19:13:44.538Z,6.23
2023-12-11T19:16:11.730Z,6.23
2023-12-11T19:18:39.043Z,6.19
2023-12-11T19:21:07.022Z,6.20
2023-12-11T19:23:34.264Z,6.14
2023-12-11T19:26:01.339Z,6.18
2023-12-11T19:28:28.734Z,6.04
2023-12-11T19:30:56.016Z,6.11
2023-12-11T19:33:23.319Z,6.04
2023-12-11T19:35:53.222Z,6.02
2023-12-11T19:38:20.442Z,6.09
2023-12-11T19:40:47.512Z,6.13
2023-12-11T19:43:14.746Z,6.12
2023-12-11T19:45:42.104Z,5.84
2023-12-11T19:48:09.438Z,6.11
2023-12-11T19:50:36.753Z,6.15
2023-12-11T19:53:03.911Z,6.16
2023-12-11T19:55:31.184Z,6.14
2023-12-11T19:57:58.377Z,5.95
2023-12-11T20:00:25.957Z,6.00
2023-12-11T20:02:53.129Z,5.90
2023-12-11T20:05:20.375Z,5.97
2023-12-11T20:07:47.505Z,6.01
2023-12-11T20:10:16.636Z,5.98
2023-12-11T20:12:43.995Z,6.02
2023-12-11T20:15:14.237Z,5.93
2023-12-11T20:17:41.954Z,6.06
2023-12-11T20:20:09.891Z,5.99
2023-12-11T20:22:37.277Z,6.00
2023-12-11T20:25:04.950Z,6.02
2023-12-11T20:27:33.620Z,5.90
2023-12-11T20:30:01.254Z,5.79
2023-12-11T20:32:28.536Z,5.66
2023-12-11T20:34:55.817Z,5.92
2023-12-11T20:37:23.093Z,5.94
2023-12-11T20:39:50.229Z,5.99
2023-12-11T20:42:18.864Z,5.97
2023-12-11T20:44:45.981Z,5.95
2023-12-11T20:47:13.311Z,5.58
2023-12-11T20:49:40.653Z,6.03
2023-12-11T20:52:07.928Z,6.06
2023-12-11T20:54:35.092Z,5.89
2023-12-11T20:57:02.241Z,5.79
2023-12-11T20:59:29.473Z,5.82
2023-12-11T21:01:56.852Z,5.82
2023-12-11T21:04:24.941Z,5.86
2023-12-11T21:06:52.177Z,5.94
2023-12-11T21:09:19.505Z,5.78
2023-12-11T21:11:46.664Z,5.75
2023-12-11T21:14:13.872Z,5.67
2023-12-11T21:16:41.538Z,5.57
2023-12-11T21:19:08.916Z,5.46
2023-12-11T21:21:37.021Z,5.54
2023-12-11T21:24:04.663Z,5.63
2023-12-11T21:26:32.216Z,5.57
2023-12-11T21:29:00.532Z,5.65
2023-12-11T21:31:31.275Z,5.70
2023-12-11T21:33:59.649Z,5.82
2023-12-11T21:36:30.969Z,5.69
2023-12-11T21:38:59.562Z,5.62
2023-12-11T21:41:27.224Z,5.23
2023-12-11T21:43:54.804Z,4.98
2023-12-11T21:46:22.280Z,4.99
2023-12-11T21:48:50.187Z,5.10
2023-12-11T21:51:19.164Z,5.04
2023-12-11T21:53:47.014Z,5.11
2023-12-11T21:56:14.811Z,5.19
2023-12-11T21:58:42.673Z,5.28
2023-12-11T22:01:10.208Z,4.98
2023-12-11T22:03:37.977Z,5.44
2023-12-11T22:06:05.194Z,5.29
2023-12-11T22:08:32.337Z,5.29
2023-12-11T22:10:59.364Z,5.34
2023-12-11T22:13:26.627Z,5.27
2023-12-11T22:15:53.877Z,5.32
2023-12-11T22:18:21.226Z,5.17
2023-12-11T22:20:48.654Z,5.17
2023-12-11T22:23:15.776Z,5.16
2023-12-11T22:25:43.025Z,5.10
2023-12-11T22:28:10.168Z,5.20
2023-12-11T22:30:37.302Z,5.25
2023-12-11T22:33:04.460Z,5.32
2023-12-11T22:35:31.521Z,5.39
2023-12-11T22:37:58.780Z,5.43
2023-12-11T22:40:25.934Z,5.20
2023-12-11T22:42:53.182Z,4.94
2023-12-11T22:45:22.582Z,4.87
2023-12-11T22:47:50.132Z,4.83
2023-12-11T22:50:17.376Z,4.73
2023-12-11T22:52:44.564Z,4.75
2023-12-11T22:55:11.833Z,4.95
2023-12-11T22:57:40.564Z,5.01
2023-12-11T23:00:11.957Z,4.98
2023-12-11T23:02:39.799Z,5.20
2023-12-11T23:05:07.477Z,5.29
2023-12-11T23:07:34.987Z,5.29
2023-12-11T23:10:02.545Z,5.35
2023-12-11T23:12:29.740Z,5.39
2023-12-11T23:14:56.791Z,5.41
2023-12-11T23:17:23.966Z,5.39
2023-12-11T23:19:51.183Z,5.51
2023-12-11T23:22:18.416Z,5.48
2023-12-11T23:24:45.530Z,5.49
2023-12-11T23:27:12.679Z,5.44
2023-12-11T23:29:42.081Z,5.16
2023-12-11T23:32:09.352Z,4.92
2023-12-11T23:34:36.456Z,4.67
2023-12-11T23:37:03.679Z,4.51
2023-12-11T23:39:30.778Z,4.50
2023-12-11T23:41:57.883Z,4.58
2023-12-11T23:44:24.984Z,4.65
2023-12-11T23:46:52.134Z,4.81
2023-12-11T23:49:19.389Z,4.93
2023-12-11T23:51:46.552Z,4.93
2023-12-11T23:54:13.632Z,5.06
2023-12-11T23:56:40.796Z,5.11
2023-12-11T23:59:09.983Z,5.13
